Time;durP1;ratioP1;P1;durP2;ratioP2;P2;SDS_P1;SDS_P2;PMS_P1;PMS_P2;Temp;Humidity;BMP_temperature;BMP_pressure;BME280_temperature;BME280_humidity;BME280_pressure;Samples;Min_cycle;Max_cycle;Signal;HPM_P1;HPM_P2
2021/04/01 00:02:09;;;;;;;12.07;2.38;;;;;;;;;;4977323;28;20482;-59
2021/04/01 00:04:36;;;;;;;8.85;2.05;;;;;;;;;;4985180;28;20061;-58
2021/04/01 00:07:04;;;;;;;18.08;2.78;;;;;;;;;;4988894;28;20022;-59
2021/04/01 00:09:31;;;;;;;14.20;2.30;;;;;;;;;;4988965;28;20569;-60
2021/04/01 00:11:58;;;;;;;13.30;2.45;;;;;;;;;;4981163;28;20034;-59
2021/04/01 00:14:25;;;;;;;11.43;2.20;;;;;;;;;;4974103;28;20033;-59
2021/04/01 00:16:53;;;;;;;15.60;2.35;;;;;;;;;;4978896;28;20493;-59
2021/04/01 00:19:20;;;;;;;12.55;2.35;;;;;;;;;;4982742;28;20033;-59
2021/04/01 00:21:47;;;;;;;14.40;2.50;;;;;;;;;;4991684;28;20054;-58
2021/04/01 00:24:14;;;;;;;17.65;2.50;;;;;;;;;;4983806;28;20027;-59
2021/04/01 00:26:41;;;;;;;18.20;2.50;;;;;;;;;;4980510;28;20078;-59
2021/04/01 00:29:08;;;;;;;19.88;2.60;;;;;;;;;;4976242;28;20015;-59
2021/04/01 00:31:35;;;;;;;11.93;2.00;;;;;;;;;;4978218;28;20031;-59
2021/04/01 00:34:04;;;;;;;18.90;2.50;;;;;;;;;;4976189;28;20027;-59
2021/04/01 00:36:31;;;;;;;14.80;2.17;;;;;;;;;;4986645;28;20036;-58
2021/04/01 00:38:58;;;;;;;15.70;2.35;;;;;;;;;;4985231;28;20023;-65
2021/04/01 00:41:25;;;;;;;13.10;2.17;;;;;;;;;;4989829;28;20023;-60
2021/04/01 00:43:52;;;;;;;13.40;2.80;;;;;;;;;;4988550;28;20474;-59
2021/04/01 00:46:19;;;;;;;12.63;2.30;;;;;;;;;;4984829;28;20015;-59
2021/04/01 00:48:46;;;;;;;12.32;2.50;;;;;;;;;;4987951;28;20602;-59
2021/04/01 00:51:13;;;;;;;15.13;2.85;;;;;;;;;;4980176;28;20035;-58
2021/04/01 00:53:40;;;;;;;10.38;2.53;;;;;;;;;;4981453;28;20446;-58
2021/04/01 00:56:07;;;;;;;19.48;2.88;;;;;;;;;;4964569;28;20113;-58
2021/04/01 00:58:34;;;;;;;17.45;3.00;;;;;;;;;;4989882;28;20478;-58
2021/04/01 01:03:39;;;;;;;9.70;2.63;;;;;;;;;;4988082;28;20072;-58
2021/04/01 01:06:06;;;;;;;17.48;3.20;;;;;;;;;;4990657;28;20118;-58
2021/04/01 01:08:33;;;;;;;20.02;3.55;;;;;;;;;;4988817;28;20042;-58
2021/04/01 01:11:00;;;;;;;20.40;4.57;;;;;;;;;;4988936;28;20018;-59
2021/04/01 01:13:27;;;;;;;21.67;4.70;;;;;;;;;;4993683;28;20049;-58
2021/04/01 01:15:54;;;;;;;22.80;3.67;;;;;;;;;;4990619;28;20493;-59
2021/04/01 01:18:21;;;;;;;26.42;6.05;;;;;;;;;;4988900;28;20034;-58
2021/04/01 01:20:51;;;;;;;23.75;5.95;;;;;;;;;;4989680;28;20019;-58
2021/04/01 01:23:19;;;;;;;24.48;5.45;;;;;;;;;;4992164;28;20577;-58
2021/04/01 01:25:46;;;;;;;24.70;6.28;;;;;;;;;;4986604;28;20030;-58
2021/04/01 01:28:13;;;;;;;28.48;5.85;;;;;;;;;;4979767;28;20101;-58
2021/04/01 01:30:40;;;;;;;25.98;6.10;;;;;;;;;;4986552;28;20128;-58
2021/04/01 01:33:08;;;;;;;27.55;5.65;;;;;;;;;;4987942;28;20077;-58
2021/04/01 01:35:37;;;;;;;24.42;5.70;;;;;;;;;;4988292;28;20049;-59
2021/04/01 01:38:06;;;;;;;24.30;5.22;;;;;;;;;;4987241;28;20034;-58
2021/04/01 01:40:33;;;;;;;19.45;4.80;;;;;;;;;;4986203;28;20034;-58
2021/04/01 01:43:01;;;;;;;23.38;5.15;;;;;;;;;;4987719;28;20018;-58
2021/04/01 01:45:29;;;;;;;25.42;5.45;;;;;;;;;;4990881;28;20014;-59
2021/04/01 01:47:56;;;;;;;19.92;5.03;;;;;;;;;;4987974;28;20030;-58
2021/04/01 01:50:24;;;;;;;18.60;4.30;;;;;;;;;;4988562;28;20018;-58
2021/04/01 01:52:55;;;;;;;23.08;5.30;;;;;;;;;;4982702;28;20053;-58
2021/04/01 01:55:22;;;;;;;14.25;4.50;;;;;;;;;;4984803;28;20541;-59
2021/04/01 01:57:49;;;;;;;15.75;4.35;;;;;;;;;;4974810;28;20038;-58
2021/04/01 02:00:23;;;;;;;13.55;3.88;;;;;;;;;;4975059;28;20058;-59
2021/04/01 02:02:51;;;;;;;15.20;4.13;;;;;;;;;;4977069;28;20372;-59
2021/04/01 02:05:18;;;;;;;15.50;4.13;;;;;;;;;;4974172;28;20439;-59
2021/04/01 02:07:45;;;;;;;19.60;4.85;;;;;;;;;;4975090;28;20034;-59
2021/04/01 02:10:14;;;;;;;19.08;4.13;;;;;;;;;;4980810;28;20364;-59
2021/04/01 02:12:42;;;;;;;18.25;5.25;;;;;;;;;;4980982;28;20032;-58
2021/04/01 02:15:14;;;;;;;17.45;4.43;;;;;;;;;;4974280;28;20018;-59
2021/04/01 02:17:41;;;;;;;15.70;4.07;;;;;;;;;;4986469;28;20031;-59
2021/04/01 02:20:09;;;;;;;15.13;3.88;;;;;;;;;;4961913;28;20022;-58
2021/04/01 02:22:36;;;;;;;16.50;4.25;;;;;;;;;;4977341;28;20030;-59
2021/04/01 02:25:03;;;;;;;13.82;3.53;;;;;;;;;;4974963;28;20022;-59
2021/04/01 02:27:30;;;;;;;14.18;4.05;;;;;;;;;;4981882;28;20034;-59
2021/04/01 02:29:57;;;;;;;15.27;3.67;;;;;;;;;;4984005;28;20121;-59
2021/04/01 02:32:24;;;;;;;16.98;3.55;;;;;;;;;;4976941;28;20117;-59
2021/04/01 02:34:51;;;;;;;11.75;3.55;;;;;;;;;;4979799;28;20092;-59
2021/04/01 02:37:19;;;;;;;12.40;3.45;;;;;;;;;;4986087;28;20026;-59
2021/04/01 02:39:46;;;;;;;14.45;3.90;;;;;;;;;;4989167;28;20031;-59
2021/04/01 02:42:13;;;;;;;14.30;3.38;;;;;;;;;;4987249;28;20031;-59
2021/04/01 02:44:40;;;;;;;13.88;3.50;;;;;;;;;;4971324;28;20023;-62
2021/04/01 02:47:07;;;;;;;14.73;4.07;;;;;;;;;;4984100;28;20297;-60
2021/04/01 02:49:34;;;;;;;9.70;3.08;;;;;;;;;;4984813;28;20018;-60
2021/04/01 02:52:01;;;;;;;11.23;3.17;;;;;;;;;;4984525;28;20037;-65
2021/04/01 02:54:28;;;;;;;11.13;3.28;;;;;;;;;;4990400;28;20022;-59
2021/04/01 02:56:55;;;;;;;12.18;3.35;;;;;;;;;;4987212;28;20401;-63
2021/04/01 02:59:22;;;;;;;9.55;2.75;;;;;;;;;;4967368;28;20030;-62
2021/04/01 03:01:50;;;;;;;14.73;3.35;;;;;;;;;;4984846;28;20030;-65
2021/04/01 03:04:17;;;;;;;8.65;3.08;;;;;;;;;;4986002;28;20019;-64
2021/04/01 03:06:44;;;;;;;11.50;3.88;;;;;;;;;;4983845;28;20119;-64
2021/04/01 03:09:11;;;;;;;12.07;2.90;;;;;;;;;;4988767;28;20610;-64
2021/04/01 03:11:38;;;;;;;6.47;2.30;;;;;;;;;;4987340;28;20057;-64
2021/04/01 03:14:05;;;;;;;7.40;2.75;;;;;;;;;;4981499;28;20161;-60
2021/04/01 03:16:32;;;;;;;10.30;2.88;;;;;;;;;;4985284;28;20125;-59
2021/04/01 03:18:59;;;;;;;11.10;2.90;;;;;;;;;;4986563;28;20390;-59
2021/04/01 03:21:27;;;;;;;10.98;2.60;;;;;;;;;;4989151;28;20458;-63
2021/04/01 03:23:54;;;;;;;10.02;2.58;;;;;;;;;;4986006;28;20080;-60
2021/04/01 03:26:21;;;;;;;10.27;3.00;;;;;;;;;;4979568;28;20518;-60
2021/04/01 03:28:48;;;;;;;9.85;2.92;;;;;;;;;;4985695;28;20023;-60
2021/04/01 03:31:15;;;;;;;10.10;2.83;;;;;;;;;;4987321;28;20033;-61
2021/04/01 03:33:42;;;;;;;15.15;3.10;;;;;;;;;;4986723;28;20103;-59
2021/04/01 03:36:09;;;;;;;10.10;2.50;;;;;;;;;;4985347;28;20483;-60
2021/04/01 03:38:36;;;;;;;7.07;2.88;;;;;;;;;;4985893;28;20026;-60
2021/04/01 03:41:03;;;;;;;13.55;3.22;;;;;;;;;;4982626;28;20031;-59
2021/04/01 03:43:30;;;;;;;8.43;2.83;;;;;;;;;;4972029;28;20034;-60
2021/04/01 03:45:57;;;;;;;9.27;2.40;;;;;;;;;;4972038;28;20030;-62
2021/04/01 03:48:25;;;;;;;10.70;3.13;;;;;;;;;;4972470;28;20026;-58
2021/04/01 03:50:52;;;;;;;8.00;2.63;;;;;;;;;;4972526;28;20030;-61
2021/04/01 03:53:19;;;;;;;8.90;2.53;;;;;;;;;;4972413;28;20091;-61
2021/04/01 03:55:46;;;;;;;13.65;3.28;;;;;;;;;;4972153;28;20027;-61
2021/04/01 04:00:42;;;;;;;7.35;2.80;;;;;;;;;;4991587;28;20030;-62
2021/04/01 04:05:49;;;;;;;9.32;2.00;;;;;;;;;;4990882;28;20035;-61
2021/04/01 04:16:36;;;;;;;9.68;2.42;;;;;;;;;;4991361;28;20034;-62
2021/04/01 04:19:04;;;;;;;8.23;2.50;;;;;;;;;;4991972;28;20054;-61
2021/04/01 04:21:31;;;;;;;9.10;2.92;;;;;;;;;;4991380;28;20142;-62
2021/04/01 04:24:00;;;;;;;7.05;2.20;;;;;;;;;;4991864;28;20028;-62
2021/04/01 04:26:27;;;;;;;7.43;2.47;;;;;;;;;;4991310;28;20435;-65
2021/04/01 04:28:54;;;;;;;6.05;2.30;;;;;;;;;;4991806;28;20474;-64
2021/04/01 04:31:21;;;;;;;6.50;2.42;;;;;;;;;;4991530;28;20041;-62
2021/04/01 04:33:48;;;;;;;8.93;1.92;;;;;;;;;;4991542;28;20023;-61
2021/04/01 04:36:15;;;;;;;4.32;1.80;;;;;;;;;;4991479;28;20038;-60
2021/04/01 04:38:42;;;;;;;8.38;2.33;;;;;;;;;;4991742;28;20023;-60
2021/04/01 04:41:09;;;;;;;7.07;2.15;;;;;;;;;;4991916;28;20030;-61
2021/04/01 04:43:36;;;;;;;7.95;1.80;;;;;;;;;;4992547;28;20434;-62
2021/04/01 04:46:03;;;;;;;10.38;2.00;;;;;;;;;;4995426;28;20037;-61
2021/04/01 04:48:30;;;;;;;7.25;2.05;;;;;;;;;;4995024;28;20014;-59
2021/04/01 04:50:57;;;;;;;7.88;1.80;;;;;;;;;;4995001;28;20030;-61
2021/04/01 04:53:25;;;;;;;10.20;2.67;;;;;;;;;;4995223;28;20113;-61
2021/04/01 04:56:15;;;;;;;6.35;2.47;;;;;;;;;;4994429;28;20022;-61
2021/04/01 05:04:36;;;;;;;8.77;1.92;;;;;;;;;;4994537;28;20025;-61
2021/04/01 05:09:17;;;;;;;10.23;2.20;;;;;;;;;;4994156;28;20046;-61
2021/04/01 05:11:44;;;;;;;8.13;1.98;;;;;;;;;;4994510;28;20097;-61
2021/04/01 05:14:11;;;;;;;7.35;2.00;;;;;;;;;;4992516;28;20054;-61
2021/04/01 05:16:38;;;;;;;6.88;1.90;;;;;;;;;;4993913;28;20041;-61
2021/04/01 05:19:08;;;;;;;5.40;1.90;;;;;;;;;;4994237;28;20026;-61
2021/04/01 05:21:46;;;;;;;6.30;1.80;;;;;;;;;;4993812;28;20542;-61
2021/04/01 05:24:13;;;;;;;6.13;2.10;;;;;;;;;;4994366;28;20113;-60
2021/04/01 05:29:17;;;;;;;6.63;1.73;;;;;;;;;;4994255;28;20030;-63
2021/04/01 05:31:45;;;;;;;4.60;1.70;;;;;;;;;;4993953;28;20018;-62
2021/04/01 05:34:13;;;;;;;5.90;1.80;;;;;;;;;;4994262;28;20037;-63
2021/04/01 05:36:42;;;;;;;8.38;1.73;;;;;;;;;;4993883;28;20034;-63
2021/04/01 05:39:16;;;;;;;6.38;1.63;;;;;;;;;;4994409;28;20080;-62
2021/04/01 05:41:45;;;;;;;8.38;2.25;;;;;;;;;;4994028;28;20049;-63
2021/04/01 05:44:21;;;;;;;8.50;2.10;;;;;;;;;;4994029;28;20394;-63
2021/04/01 05:47:11;;;;;;;5.55;1.70;;;;;;;;;;4993746;28;20486;-62
2021/04/01 05:49:58;;;;;;;5.07;1.73;;;;;;;;;;4994127;28;20053;-63
2021/04/01 06:04:04;;;;;;;5.43;1.75;;;;;;;;;;4993852;28;20442;-63
2021/04/01 06:06:40;;;;;;;4.45;1.55;;;;;;;;;;4993840;28;20089;-61
2021/04/01 06:09:12;;;;;;;5.88;1.67;;;;;;;;;;4993160;28;20050;-61
2021/04/01 06:11:40;;;;;;;5.70;2.13;;;;;;;;;;4993613;28;20026;-62
2021/04/01 06:14:14;;;;;;;5.97;1.67;;;;;;;;;;4975898;28;20030;-63
2021/04/01 06:16:45;;;;;;;5.55;2.08;;;;;;;;;;4993537;28;20069;-62
2021/04/01 06:19:14;;;;;;;5.13;1.67;;;;;;;;;;4992955;28;20022;-62
2021/04/01 06:21:43;;;;;;;7.88;1.80;;;;;;;;;;4993544;28;20023;-62
2021/04/01 06:24:21;;;;;;;5.97;1.70;;;;;;;;;;4992763;28;20030;-61
2021/04/01 06:26:50;;;;;;;7.95;2.05;;;;;;;;;;4993500;28;20030;-61
2021/04/01 06:29:19;;;;;;;5.35;1.45;;;;;;;;;;4992715;28;20503;-61
2021/04/01 06:31:48;;;;;;;7.60;1.60;;;;;;;;;;4993385;28;20027;-62
2021/04/01 06:34:16;;;;;;;6.70;1.52;;;;;;;;;;4993151;28;20030;-61
2021/04/01 06:36:55;;;;;;;5.63;1.42;;;;;;;;;;4992792;28;20113;-62
2021/04/01 06:39:22;;;;;;;5.72;1.52;;;;;;;;;;4993142;28;20021;-61
2021/04/01 06:42:01;;;;;;;5.32;1.50;;;;;;;;;;4992715;28;20033;-61
2021/04/01 06:44:31;;;;;;;5.70;1.70;;;;;;;;;;4991098;28;20027;-61
2021/04/01 06:47:08;;;;;;;3.72;1.25;;;;;;;;;;4992240;28;20569;-61
2021/04/01 06:52:40;;;;;;;4.63;1.90;;;;;;;;;;4993096;28;20093;-61
2021/04/01 06:55:24;;;;;;;4.70;1.40;;;;;;;;;;4992573;28;20058;-61
2021/04/01 07:06:02;;;;;;;6.85;2.25;;;;;;;;;;4992236;28;20161;-59
2021/04/01 07:08:43;;;;;;;6.78;1.67;;;;;;;;;;4992275;28;20050;-61
2021/04/01 07:11:24;;;;;;;4.88;1.60;;;;;;;;;;4990232;28;20062;-60
2021/04/01 07:13:55;;;;;;;3.20;1.20;;;;;;;;;;4992636;28;20023;-61
2021/04/01 07:16:31;;;;;;;2.63;1.02;;;;;;;;;;4992277;28;20070;-60
2021/04/01 07:34:36;;;;;;;4.15;1.25;;;;;;;;;;4991948;28;20394;-62
2021/04/01 07:44:42;;;;;;;4.00;1.50;;;;;;;;;;4991821;28;20034;-60
2021/04/01 07:47:27;;;;;;;5.63;1.63;;;;;;;;;;4992091;28;20113;-62
2021/04/01 07:49:56;;;;;;;3.22;1.52;;;;;;;;;;4974327;28;20030;-60
2021/04/01 07:52:27;;;;;;;7.25;3.17;;;;;;;;;;4992211;28;20077;-60
2021/04/01 07:55:03;;;;;;;3.65;1.25;;;;;;;;;;4991435;28;20430;-60
2021/04/01 08:00:13;;;;;;;4.35;1.30;;;;;;;;;;4972573;28;20034;-60
2021/04/01 08:05:22;;;;;;;;;;;;;;;;;;4972640;28;20034;-61
2021/04/01 08:07:55;;;;;;;3.47;1.17;;;;;;;;;;4972527;28;19960;-62
2021/04/01 08:10:25;;;;;;;6.32;1.33;;;;;;;;;;4972185;28;20549;-62
2021/04/01 08:12:56;;;;;;;4.05;1.33;;;;;;;;;;4972923;28;20037;-61
2021/04/01 08:15:26;;;;;;;3.67;1.20;;;;;;;;;;4972169;28;20027;-61
2021/04/01 08:20:29;;;;;;;4.35;1.40;;;;;;;;;;4975818;28;20419;-59
2021/04/01 08:23:10;;;;;;;5.93;1.30;;;;;;;;;;4976384;28;20027;-62
2021/04/01 08:31:54;;;;;;;5.00;1.33;;;;;;;;;;4976024;28;20038;-61
2021/04/01 08:34:19;;;;;;;5.60;1.40;;;;;;;;;;4975766;28;20471;-61
2021/04/01 08:36:50;;;;;;;3.55;1.25;;;;;;;;;;4975106;28;20041;-61
2021/04/01 08:39:19;;;;;;;4.35;1.15;;;;;;;;;;4975995;28;20085;-60
2021/04/01 08:41:52;;;;;;;3.97;1.30;;;;;;;;;;4975640;28;20035;-61
2021/04/01 08:44:24;;;;;;;5.18;1.65;;;;;;;;;;4975999;28;20498;-60
2021/04/01 08:46:50;;;;;;;;;;;;;;;;;;4975618;28;20503;-59
2021/04/01 08:49:24;;;;;;;4.95;1.27;;;;;;;;;;4975822;28;19906;-61
2021/04/01 08:52:05;;;;;;;4.40;1.50;;;;;;;;;;4975955;28;20042;-62
2021/04/01 08:54:37;;;;;;;4.43;1.13;;;;;;;;;;4975994;28;20034;-62
2021/04/01 08:57:12;;;;;;;4.00;1.00;;;;;;;;;;4975311;28;20042;-61
2021/04/01 09:00:02;;;;;;;5.35;1.30;;;;;;;;;;4975203;28;20094;-62
2021/04/01 09:02:29;;;;;;;3.22;0.98;;;;;;;;;;4975479;28;20035;-59
2021/04/01 09:04:59;;;;;;;4.45;1.20;;;;;;;;;;4974093;28;20038;-60
2021/04/01 09:07:31;;;;;;;4.45;1.48;;;;;;;;;;4975350;28;20042;-60
2021/04/01 09:10:03;;;;;;;2.60;1.07;;;;;;;;;;4974879;28;20130;-61
2021/04/01 09:12:38;;;;;;;5.03;1.20;;;;;;;;;;4983681;28;20304;-61
2021/04/01 09:15:07;;;;;;;3.85;1.27;;;;;;;;;;4993815;28;20027;-62
2021/04/01 09:17:35;;;;;;;4.18;1.13;;;;;;;;;;4994206;28;20550;-61
2021/04/01 09:20:13;;;;;;;3.28;1.10;;;;;;;;;;4994244;28;20035;-61
2021/04/01 09:22:43;;;;;;;6.00;1.30;;;;;;;;;;4991238;28;20084;-62
2021/04/01 09:25:11;;;;;;;5.10;1.35;;;;;;;;;;4993452;28;20023;-60
2021/04/01 09:27:47;;;;;;;3.92;1.38;;;;;;;;;;4994229;28;20026;-61
2021/04/01 09:30:15;;;;;;;5.53;1.20;;;;;;;;;;4993886;28;20018;-62
2021/04/01 09:32:43;;;;;;;2.10;0.95;;;;;;;;;;4994293;28;20586;-62
2021/04/01 09:35:11;;;;;;;3.33;1.00;;;;;;;;;;4994097;28;20394;-61
2021/04/01 09:37:51;;;;;;;3.35;1.20;;;;;;;;;;4994205;28;20030;-62
2021/04/01 09:40:19;;;;;;;3.42;1.30;;;;;;;;;;4993846;28;20106;-62
2021/04/01 09:42:46;;;;;;;2.70;0.90;;;;;;;;;;4994062;28;20057;-61
2021/04/01 09:45:15;;;;;;;2.33;0.95;;;;;;;;;;4993739;28;20033;-60
2021/04/01 09:47:51;;;;;;;3.92;1.17;;;;;;;;;;4994163;28;20026;-62
2021/04/01 09:50:19;;;;;;;5.15;1.40;;;;;;;;;;4993564;28;20505;-61
2021/04/01 09:53:00;;;;;;;2.97;1.05;;;;;;;;;;4993799;28;20085;-62
2021/04/01 09:55:34;;;;;;;5.63;1.15;;;;;;;;;;4993685;28;20023;-61
2021/04/01 09:58:03;;;;;;;4.60;1.10;;;;;;;;;;4993581;28;20089;-61
2021/04/01 10:00:49;;;;;;;4.70;1.17;;;;;;;;;;4993922;28;20033;-62
2021/04/01 10:03:19;;;;;;;6.55;1.35;;;;;;;;;;4994035;28;20474;-62
2021/04/01 10:05:47;;;;;;;5.10;1.13;;;;;;;;;;4993812;28;20062;-62
2021/04/01 10:08:23;;;;;;;5.20;1.20;;;;;;;;;;4992937;28;20038;-62
2021/04/01 10:10:51;;;;;;;3.28;1.17;;;;;;;;;;4993748;28;20030;-62
2021/04/01 10:13:20;;;;;;;3.13;0.98;;;;;;;;;;4993173;28;20025;-62
2021/04/01 10:15:47;;;;;;;4.75;1.17;;;;;;;;;;4993653;28;20105;-62
2021/04/01 10:18:16;;;;;;;6.95;1.52;;;;;;;;;;4992876;28;20038;-61
2021/04/01 10:20:49;;;;;;;2.72;1.00;;;;;;;;;;4993757;28;20034;-62
2021/04/01 10:23:17;;;;;;;3.85;1.00;;;;;;;;;;4993036;28;20027;-62
2021/04/01 10:25:55;;;;;;;3.63;1.20;;;;;;;;;;4993318;28;20054;-61
2021/04/01 10:28:35;;;;;;;4.68;1.23;;;;;;;;;;4992840;28;20030;-62
2021/04/01 10:31:13;;;;;;;3.17;1.20;;;;;;;;;;4993363;28;20062;-59
2021/04/01 10:33:55;;;;;;;2.70;1.08;;;;;;;;;;4993015;28;20089;-62
2021/04/01 10:36:29;;;;;;;3.13;1.00;;;;;;;;;;4993110;28;20034;-62
2021/04/01 10:39:09;;;;;;;2.65;0.90;;;;;;;;;;4992523;28;20025;-60
2021/04/01 10:41:45;;;;;;;2.90;0.90;;;;;;;;;;4992736;28;20018;-61
2021/04/01 10:44:12;;;;;;;2.83;0.98;;;;;;;;;;4992670;28;20114;-61
2021/04/01 10:46:42;;;;;;;3.47;1.30;;;;;;;;;;4993183;28;20018;-61
2021/04/01 10:49:10;;;;;;;2.50;1.00;;;;;;;;;;4992401;28;20053;-62
2021/04/01 10:51:38;;;;;;;4.00;1.13;;;;;;;;;;4993152;28;20030;-61
2021/04/01 10:54:11;;;;;;;2.55;0.93;;;;;;;;;;4992477;28;20034;-60
2021/04/01 10:57:10;;;;;;;4.95;1.20;;;;;;;;;;4993038;28;20633;-62
2021/04/01 10:59:37;;;;;;;3.58;0.95;;;;;;;;;;4959627;28;20054;-61
2021/04/01 11:02:05;;;;;;;4.40;0.90;;;;;;;;;;4992913;28;20505;-61
2021/04/01 11:04:33;;;;;;;3.30;0.90;;;;;;;;;;4992077;28;20380;-62
2021/04/01 11:07:02;;;;;;;2.35;1.10;;;;;;;;;;4992791;28;20787;-61
2021/04/01 11:09:30;;;;;;;2.50;1.10;;;;;;;;;;4991892;28;20065;-59
2021/04/01 11:14:26;;;;;;;5.53;1.08;;;;;;;;;;4992590;28;20041;-61
2021/04/01 11:16:53;;;;;;;2.85;1.23;;;;;;;;;;4992153;28;20543;-62
2021/04/01 11:19:21;;;;;;;4.43;0.82;;;;;;;;;;4992481;28;20061;-61
2021/04/01 11:21:49;;;;;;;3.35;1.13;;;;;;;;;;4992264;28;20026;-62
2021/04/01 11:24:28;;;;;;;4.25;1.40;;;;;;;;;;4992434;28;20522;-61
2021/04/01 11:26:56;;;;;;;2.38;0.82;;;;;;;;;;4991854;28;20034;-62
2021/04/01 11:29:30;;;;;;;3.00;1.05;;;;;;;;;;4992096;28;20494;-60
2021/04/01 11:32:10;;;;;;;3.38;1.00;;;;;;;;;;4991832;28;20034;-61
2021/04/01 11:34:37;;;;;;;4.03;1.17;;;;;;;;;;4992426;28;20479;-62
2021/04/01 11:37:06;;;;;;;3.38;1.05;;;;;;;;;;4991802;28;20053;-61
2021/04/01 11:39:40;;;;;;;4.32;1.17;;;;;;;;;;4992094;28;20728;-62
2021/04/01 11:42:11;;;;;;;3.55;0.98;;;;;;;;;;4974531;28;20121;-61
2021/04/01 11:44:38;;;;;;;3.55;1.23;;;;;;;;;;4992317;28;20534;-60
2021/04/01 11:47:13;;;;;;;1.90;1.00;;;;;;;;;;4974549;28;20772;-62
2021/04/01 11:49:40;;;;;;;2.95;1.20;;;;;;;;;;4992088;28;20463;-60
2021/04/01 11:52:10;;;;;;;2.55;0.98;;;;;;;;;;4991880;28;20026;-61
2021/04/01 11:54:38;;;;;;;3.20;1.00;;;;;;;;;;4996057;28;20026;-62
2021/04/01 11:57:15;;;;;;;3.67;1.05;;;;;;;;;;4996205;28;20434;-61
2021/04/01 11:59:44;;;;;;;2.42;0.93;;;;;;;;;;4995702;28;20027;-61
2021/04/01 12:02:12;;;;;;;2.42;1.00;;;;;;;;;;4996196;28;20027;-62
2021/04/01 12:04:44;;;;;;;3.60;1.17;;;;;;;;;;4995212;28;20494;-62
2021/04/01 12:07:11;;;;;;;;;;;;;;;;;;4996772;28;20025;-61
2021/04/01 12:09:39;;;;;;;3.20;0.95;;;;;;;;;;4995398;28;19917;-61
2021/04/01 12:12:06;;;;;;;3.38;1.00;;;;;;;;;;4994988;28;20023;-59
2021/04/01 12:14:34;;;;;;;2.63;1.10;;;;;;;;;;4986655;28;20022;-62
2021/04/01 12:17:02;;;;;;;2.58;1.10;;;;;;;;;;4992054;28;20023;-61
2021/04/01 12:19:29;;;;;;;1.85;0.80;;;;;;;;;;4983482;28;20026;-60
2021/04/01 12:21:56;;;;;;;4.00;0.90;;;;;;;;;;4987229;28;20030;-60
2021/04/01 12:24:23;;;;;;;1.60;0.80;;;;;;;;;;4984530;28;20015;-61
2021/04/01 12:26:51;;;;;;;2.58;1.00;;;;;;;;;;4985085;28;20419;-59
2021/04/01 12:29:18;;;;;;;3.20;1.00;;;;;;;;;;4991330;28;20026;-60
2021/04/01 12:31:54;;;;;;;2.63;0.98;;;;;;;;;;4971516;28;20888;-63
2021/04/01 12:34:28;;;;;;;4.47;1.10;;;;;;;;;;4991351;28;20033;-62
2021/04/01 12:36:56;;;;;;;3.78;1.10;;;;;;;;;;4995272;28;20447;-63
2021/04/01 12:39:32;;;;;;;3.25;1.02;;;;;;;;;;4995226;28;20114;-61
2021/04/01 12:42:00;;;;;;;4.00;1.30;;;;;;;;;;4993141;28;20019;-63
2021/04/01 12:44:35;;;;;;;6.15;1.40;;;;;;;;;;4973233;28;20026;-66
2021/04/01 12:47:02;;;;;;;7.45;1.52;;;;;;;;;;4969700;28;20042;-63
2021/04/01 12:49:36;;;;;;;10.68;1.73;;;;;;;;;;4970957;28;20045;-60
2021/04/01 12:52:04;;;;;;;10.27;1.20;;;;;;;;;;4987749;28;20663;-59
2021/04/01 12:54:36;;;;;;;9.50;1.90;;;;;;;;;;4986168;28;20486;-62
2021/04/01 12:57:06;;;;;;;7.40;1.90;;;;;;;;;;4989502;28;20042;-62
2021/04/01 12:59:40;;;;;;;8.93;1.58;;;;;;;;;;4987395;28;20037;-61
2021/04/01 13:04:36;;;;;;;7.93;1.60;;;;;;;;;;4983384;28;20105;-61
2021/04/01 13:07:18;;;;;;;5.13;1.30;;;;;;;;;;4988961;28;20112;-61
2021/04/01 13:09:51;;;;;;;;;;;;;;;;;;4985957;28;20054;-61
2021/04/01 13:12:18;;;;;;;;;;;;;;;;;;4988951;28;19932;-64
2021/04/01 13:14:46;;;;;;;12.30;1.73;;;;;;;;;;4991158;28;19963;-56
2021/04/01 13:17:13;;;;;;;7.13;1.50;;;;;;;;;;4969903;28;20364;-61
2021/04/01 13:19:41;;;;;;;7.50;1.20;;;;;;;;;;4986374;28;20522;-59
2021/04/01 13:22:12;;;;;;;9.88;1.75;;;;;;;;;;4989729;28;20038;-59
2021/04/01 13:24:43;;;;;;;7.43;1.70;;;;;;;;;;4994323;28;20058;-59
2021/04/01 13:27:12;;;;;;;8.27;1.43;;;;;;;;;;4993505;28;20034;-59
2021/04/01 13:29:50;;;;;;;12.40;2.50;;;;;;;;;;4972992;28;20042;-57
2021/04/01 13:32:24;;;;;;;9.57;1.70;;;;;;;;;;4992228;28;20482;-59
2021/04/01 13:34:54;;;;;;;9.95;1.20;;;;;;;;;;4989886;28;20026;-62
2021/04/01 13:37:28;;;;;;;7.50;1.48;;;;;;;;;;4993687;28;20046;-61
2021/04/01 13:40:10;;;;;;;6.65;1.48;;;;;;;;;;4993515;28;20022;-61
2021/04/01 13:42:38;;;;;;;8.10;1.20;;;;;;;;;;4993037;28;20110;-60
2021/04/01 13:45:18;;;;;;;9.93;1.48;;;;;;;;;;4991290;28;20034;-61
2021/04/01 13:47:45;;;;;;;8.63;1.58;;;;;;;;;;4992375;28;20034;-60
2021/04/01 13:50:19;;;;;;;6.53;1.40;;;;;;;;;;4986149;28;20081;-61
2021/04/01 13:55:23;;;;;;;13.07;2.63;;;;;;;;;;4978997;28;20041;-61
2021/04/01 14:00:27;;;;;;;14.38;1.60;;;;;;;;;;4976285;28;20032;-60
2021/04/01 14:11:16;;;;;;;9.95;1.50;;;;;;;;;;4977306;28;20037;-61
2021/04/01 14:13:44;;;;;;;7.38;1.08;;;;;;;;;;4975441;28;20110;-61
2021/04/01 14:16:11;;;;;;;11.73;1.45;;;;;;;;;;4984466;28;20478;-64
2021/04/01 14:18:38;;;;;;;16.55;1.70;;;;;;;;;;4978938;28;20105;-61
2021/04/01 14:21:06;;;;;;;12.38;1.48;;;;;;;;;;4972126;28;20030;-61
2021/04/01 14:23:38;;;;;;;9.43;1.55;;;;;;;;;;4956652;28;20113;-60
2021/04/01 14:26:18;;;;;;;10.85;1.55;;;;;;;;;;4986439;28;20041;-61
2021/04/01 14:28:45;;;;;;;9.38;1.30;;;;;;;;;;4987716;28;20027;-61
2021/04/01 14:31:13;;;;;;;7.38;1.63;;;;;;;;;;4986082;28;20132;-62
2021/04/01 14:33:41;;;;;;;19.88;1.90;;;;;;;;;;4991016;28;20019;-61
2021/04/01 14:36:10;;;;;;;12.18;1.90;;;;;;;;;;4993032;28;20049;-62
2021/04/01 14:38:37;;;;;;;12.30;1.70;;;;;;;;;;4993430;28;20471;-63
2021/04/01 14:41:09;;;;;;;9.75;1.38;;;;;;;;;;4992416;28;20018;-61
2021/04/01 14:46:05;;;;;;;8.10;1.67;;;;;;;;;;4989443;28;20026;-64
2021/04/01 14:48:36;;;;;;;8.25;1.50;;;;;;;;;;4973440;28;20022;-62
2021/04/01 14:51:04;;;;;;;14.40;1.90;;;;;;;;;;4985201;28;20447;-66
2021/04/01 14:55:59;;;;;;;8.63;1.63;;;;;;;;;;4987836;28;20042;-63
2021/04/01 14:58:27;;;;;;;16.45;1.95;;;;;;;;;;4991045;28;20038;-63
2021/04/01 15:00:54;;;;;;;11.00;1.70;;;;;;;;;;4990099;28;20018;-64
2021/04/01 15:06:29;;;;;;;9.18;1.92;;;;;;;;;;4987840;28;20034;-63
2021/04/01 15:08:57;;;;;;;11.98;1.63;;;;;;;;;;4988946;28;20490;-62
2021/04/01 15:11:24;;;;;;;12.80;1.88;;;;;;;;;;4979257;28;20030;-63
2021/04/01 15:13:51;;;;;;;9.75;1.42;;;;;;;;;;4981308;28;20049;-64
2021/04/01 15:16:19;;;;;;;12.10;1.70;;;;;;;;;;4989375;28;20092;-62
2021/04/01 15:18:46;;;;;;;15.30;1.70;;;;;;;;;;4990066;28;20034;-63
2021/04/01 15:21:13;;;;;;;16.60;2.03;;;;;;;;;;4990215;28;20018;-61
2021/04/01 15:23:41;;;;;;;23.42;2.42;;;;;;;;;;4990801;28;20056;-62
2021/04/01 15:26:08;;;;;;;13.68;1.90;;;;;;;;;;4976334;28;20027;-62
2021/04/01 15:28:36;;;;;;;32.30;2.97;;;;;;;;;;4990872;28;20022;-65
2021/04/01 15:31:04;;;;;;;34.95;2.65;;;;;;;;;;4988304;28;20061;-64
2021/04/01 15:33:31;;;;;;;28.85;2.30;;;;;;;;;;4989361;28;20030;-66
2021/04/01 15:35:58;;;;;;;26.77;2.50;;;;;;;;;;4989741;28;20022;-65
2021/04/01 15:38:25;;;;;;;27.23;2.25;;;;;;;;;;4991476;28;20030;-64
2021/04/01 15:40:52;;;;;;;27.13;2.63;;;;;;;;;;4990606;28;20026;-65
2021/04/01 15:43:21;;;;;;;27.55;3.00;;;;;;;;;;4989746;28;20026;-66
2021/04/01 15:45:49;;;;;;;26.50;2.83;;;;;;;;;;4974855;28;20030;-61
2021/04/01 15:48:16;;;;;;;27.08;3.58;;;;;;;;;;4987082;28;20023;-60
2021/04/01 15:50:44;;;;;;;22.13;3.03;;;;;;;;;;4978923;28;20106;-60
2021/04/01 15:53:15;;;;;;;18.13;3.17;;;;;;;;;;4985806;28;20057;-58
2021/04/01 15:55:42;;;;;;;30.63;2.97;;;;;;;;;;4990754;28;20023;-58
2021/04/01 15:58:09;;;;;;;42.65;4.38;;;;;;;;;;4979000;28;20093;-58
2021/04/01 16:00:38;;;;;;;33.80;3.20;;;;;;;;;;4989143;28;20029;-59
2021/04/01 16:03:05;;;;;;;32.67;3.08;;;;;;;;;;4990978;28;20026;-58
2021/04/01 16:05:32;;;;;;;28.85;3.33;;;;;;;;;;4984265;28;20019;-60
2021/04/01 16:08:00;;;;;;;32.20;3.50;;;;;;;;;;4976412;28;20448;-59
2021/04/01 16:10:29;;;;;;;31.30;3.53;;;;;;;;;;4983510;28;20033;-59
2021/04/01 16:13:04;;;;;;;32.22;4.43;;;;;;;;;;4973465;28;20390;-58
2021/04/01 16:15:31;;;;;;;34.67;3.85;;;;;;;;;;4979689;28;20113;-58
2021/04/01 16:18:01;;;;;;;30.73;3.53;;;;;;;;;;4977282;28;20383;-59
2021/04/01 16:20:28;;;;;;;24.40;2.88;;;;;;;;;;4973748;28;20476;-59
2021/04/01 16:22:58;;;;;;;31.02;3.33;;;;;;;;;;4975362;28;20090;-58
2021/04/01 16:25:25;;;;;;;21.95;2.90;;;;;;;;;;4986961;28;20079;-59
2021/04/01 16:27:53;;;;;;;21.25;3.38;;;;;;;;;;4975036;28;20031;-59
2021/04/01 16:30:20;;;;;;;19.80;3.03;;;;;;;;;;4989268;28;20506;-58
2021/04/01 16:32:48;;;;;;;24.73;3.17;;;;;;;;;;4974916;28;20039;-58
2021/04/01 16:35:16;;;;;;;27.65;2.78;;;;;;;;;;4971342;28;20022;-59
2021/04/01 16:37:43;;;;;;;27.30;2.83;;;;;;;;;;4973715;28;20479;-59
2021/04/01 16:40:12;;;;;;;35.78;3.30;;;;;;;;;;4965522;28;20152;-60
2021/04/01 16:42:43;;;;;;;28.00;2.72;;;;;;;;;;4954408;28;20030;-60
2021/04/01 16:45:11;;;;;;;31.88;2.92;;;;;;;;;;4982673;28;20028;-59
2021/04/01 16:47:38;;;;;;;26.98;2.80;;;;;;;;;;4990304;28;20015;-59